Time,TemperatureF,DewpointF,PressureIn,WindDirection,WindDirectionDegrees,WindSpeedMPH,WindSpeedGustMPH,Humidity,HourlyPrecipIn,Conditions,Clouds,dailyrainin,SolarRadiationWatts/m^2,SoftwareType,DateUTC
2013-09-22 00:00:00,79.5,72.4,29.72,SSW,213,13.0,15.0,79,0.00,,FEW023,0.00,0.00,VWS V14.01,2013-09-22 04:00:00,
2013-09-22 00:01:00,79.5,72.4,29.72,SSW,212,7.0,15.0,79,0.00,,FEW023,0.00,0.00,VWS V14.01,2013-09-22 04:01:00,
2013-09-22 00:06:00,79.4,72.7,29.71,SW,229,7.0,14.0,80,0.00,,FEW023,0.00,0.00,VWS V14.01,2013-09-22 04:06:00,
2013-09-22 00:11:00,79.4,72.3,29.71,SW,219,15.0,18.0,79,0.00,,FEW025,0.00,0.00,VWS V14.01,2013-09-22 04:11:00,
2013-09-22 00:16:00,79.4,72.7,29.71,SW,220,11.0,15.0,80,0.00,,FEW025,0.00,0.00,VWS V14.01,2013-09-22 04:16:00,
2013-09-22 00:21:00,79.4,72.7,29.71,SSW,197,10.0,14.0,80,0.00,,SCT120,0.00,0.00,VWS V14.01,2013-09-22 04:21:00,
2013-09-22 00:26:00,79.4,72.7,29.70,WSW,237,9.0,15.0,80,0.00,,SCT120,0.00,0.00,VWS V14.01,2013-09-22 04:26:00,
2013-09-22 00:31:00,79.3,73.0,29.70,SSW,205,8.0,18.0,81,0.00,,SCT120,0.00,0.00,VWS V14.01,2013-09-22 04:31:00,
2013-09-22 00:36:00,79.3,73.0,29.70,SSW,202,7.0,17.0,81,0.00,,SCT120,0.00,0.00,VWS V14.01,2013-09-22 04:36:00,
2013-09-22 00:41:00,79.3,72.6,29.70,SW,222,8.0,16.0,80,0.00,,BKN120,0.00,0.00,VWS V14.01,2013-09-22 04:41:00,
2013-09-22 00:46:00,79.3,73.0,29.70,SSW,205,16.0,17.0,81,0.00,,BKN120,0.00,0.00,VWS V14.01,2013-09-22 04:46:00,
2013-09-22 00:51:00,79.3,72.6,29.69,SW,221,18.0,18.0,80,0.00,,BKN120,0.00,0.00,VWS V14.01,2013-09-22 04:51:00,
2013-09-22 00:56:00,79.3,72.6,29.69,SSW,213,10.0,16.0,80,0.00,,BKN120,0.00,0.00,VWS V14.01,2013-09-22 04:56:00,
2013-09-22 01:01:00,79.4,72.7,29.69,SW,222,10.0,19.0,80,0.00,,OVC120,0.00,0.00,VWS V14.01,2013-09-22 05:01:00,
2013-09-22 01:06:00,79.4,72.7,29.69,South,188,15.0,17.0,80,0.00,,OVC120,0.00,0.00,VWS V14.01,2013-09-22 05:06:00,
2013-09-22 01:11:00,79.4,72.7,29.69,SW,223,10.0,17.0,80,0.00,,OVC120,0.00,0.00,VWS V14.01,2013-09-22 05:11:00,
2013-09-22 01:16:00,79.5,72.8,29.70,SSW,208,12.0,14.0,80,0.00,,OVC120,0.00,0.00,VWS V14.01,2013-09-22 05:16:00,
2013-09-22 01:21:00,79.5,72.0,29.70,SSW,195,12.0,23.0,78,0.00,,OVC120,0.00,0.00,VWS V14.01,2013-09-22 05:21:00,
2013-09-22 01:26:00,79.5,72.0,29.70,SSW,194,11.0,20.0,78,0.00,,OVC120,0.00,0.00,VWS V14.01,2013-09-22 05:26:00,
2013-09-22 01:31:00,79.6,72.1,29.70,SSW,213,12.0,18.0,78,0.00,,OVC120,0.00,0.00,VWS V14.01,2013-09-22 05:31:00,
2013-09-22 01:36:00,79.6,72.5,29.70,WSW,254,12.0,18.0,79,0.00,,OVC120,0.00,0.00,VWS V14.01,2013-09-22 05:36:00,
2013-09-22 01:41:00,79.6,72.5,29.69,WSW,242,7.0,19.0,79,0.00,,OVC120,0.00,0.00,VWS V14.01,2013-09-22 05:41:00,
2013-09-22 01:46:00,79.6,72.9,29.69,SSW,208,10.0,18.0,80,0.00,,OVC120,0.00,0.00,VWS V14.01,2013-09-22 05:46:00,
2013-09-22 01:51:00,79.5,72.4,29.69,WSW,241,17.0,21.0,79,0.00,,OVC120,0.00,0.00,VWS V14.01,2013-09-22 05:51:00,
2013-09-22 01:56:00,79.5,72.4,29.69,SSW,205,11.0,19.0,79,0.00,,OVC120,0.00,0.00,VWS V14.01,2013-09-22 05:56:00,
2013-09-22 02:01:00,79.6,72.9,29.69,SSW,207,12.0,20.0,80,0.00,,BKN050,0.00,0.00,VWS V14.01,2013-09-22 06:01:00,
2013-09-22 02:06:00,79.6,72.1,29.69,SSW,196,8.0,19.0,78,0.00,,BKN050,0.00,0.00,VWS V14.01,2013-09-22 06:06:00,
2013-09-22 02:11:00,79.6,72.1,29.68,SSW,207,13.0,19.0,78,0.00,,BKN050,0.00,0.00,VWS V14.01,2013-09-22 06:11:00,
2013-09-22 02:16:00,79.6,72.1,29.68,SSW,201,13.0,17.0,78,0.00,,BKN050,0.00,0.00,VWS V14.01,2013-09-22 06:16:00,
2013-09-22 02:21:00,79.6,71.8,29.68,SW,232,19.0,23.0,77,0.00,,OVC095,0.00,0.00,VWS V14.01,2013-09-22 06:21:00,
2013-09-22 02:26:00,79.7,72.2,29.68,SW,232,14.0,21.0,78,0.00,,OVC095,0.00,0.00,VWS V14.01,2013-09-22 06:26:00,
2013-09-22 02:31:00,79.7,72.2,29.68,SW,217,11.0,18.0,78,0.00,,OVC095,0.00,0.00,VWS V14.01,2013-09-22 06:31:00,
2013-09-22 02:36:00,79.6,72.5,29.67,SSW,206,9.0,23.0,79,0.00,,OVC095,0.00,0.00,VWS V14.01,2013-09-22 06:36:00,
2013-09-22 02:41:00,78.8,72.5,29.68,SW,217,18.0,20.0,81,0.00,,OVC060,0.00,0.00,VWS V14.01,2013-09-22 06:41:00,
2013-09-22 02:46:00,77.4,72.5,29.68,SW,219,18.0,18.0,85,0.04,,OVC060,0.04,0.00,VWS V14.01,2013-09-22 06:46:00,
2013-09-22 02:51:00,76.2,72.7,29.67,SSW,210,5.0,18.0,89,0.07,,OVC060,0.07,0.00,VWS V14.01,2013-09-22 06:51:00,
2013-09-22 02:56:00,75.4,72.6,29.68,SW,215,6.0,13.0,91,0.14,,OVC060,0.14,0.00,VWS V14.01,2013-09-22 06:56:00,
2013-09-22 03:01:00,74.9,72.4,29.67,SW,225,8.0,13.0,92,0.18,,BKN031,0.18,0.00,VWS V14.01,2013-09-22 07:01:00,
2013-09-22 03:06:00,74.5,72.3,29.68,SSW,205,9.0,15.0,93,0.23,,BKN031,0.23,0.00,VWS V14.01,2013-09-22 07:06:00,
2013-09-22 03:11:00,74.2,72.4,29.67,SSW,209,8.0,13.0,94,0.35,,BKN031,0.35,0.00,VWS V14.01,2013-09-22 07:11:00,
2013-09-22 03:16:00,73.8,72.0,29.67,SSW,211,7.0,15.0,94,0.39,,BKN031,0.39,0.00,VWS V14.01,2013-09-22 07:16:00,
2013-09-22 03:21:00,73.7,71.9,29.67,SSW,208,7.0,13.0,94,0.42,,BKN031,0.42,0.00,VWS V14.01,2013-09-22 07:21:00,
2013-09-22 03:26:00,73.6,71.8,29.66,West,269,4.0,14.0,94,0.47,,BKN031,0.47,0.00,VWS V14.01,2013-09-22 07:26:00,
2013-09-22 03:31:00,73.5,71.7,29.67,SW,233,6.0,7.0,94,0.48,,BKN031,0.48,0.00,VWS V14.01,2013-09-22 07:31:00,
2013-09-22 03:36:00,73.4,71.9,29.67,WSW,242,8.0,13.0,95,0.49,,BKN031,0.49,0.00,VWS V14.01,2013-09-22 07:36:00,
2013-09-22 03:41:00,73.4,71.9,29.66,SSW,199,7.0,13.0,95,0.49,,OVC060,0.49,0.00,VWS V14.01,2013-09-22 07:41:00,
2013-09-22 03:46:00,73.4,71.9,29.66,SSW,194,16.0,16.0,95,0.48,,OVC060,0.49,0.00,VWS V14.01,2013-09-22 07:46:00,
2013-09-22 03:51:00,73.4,71.9,29.66,WSW,242,9.0,12.0,95,0.45,,OVC060,0.49,0.00,VWS V14.01,2013-09-22 07:51:00,
2013-09-22 03:56:00,73.4,71.9,29.66,SW,236,8.0,14.0,95,0.42,,OVC060,0.49,0.00,VWS V14.01,2013-09-22 07:56:00,
2013-09-22 04:01:00,73.4,71.9,29.66,SW,225,14.0,19.0,95,0.35,,BKN060,0.49,0.00,VWS V14.01,2013-09-22 08:01:00,
2013-09-22 04:06:00,73.4,71.9,29.66,SW,224,13.0,13.0,95,0.31,,BKN060,0.49,0.00,VWS V14.01,2013-09-22 08:06:00,
2013-09-22 04:11:00,73.4,71.9,29.66,WSW,255,8.0,12.0,95,0.26,,BKN060,0.49,0.00,VWS V14.01,2013-09-22 08:11:00,
2013-09-22 04:16:00,73.4,71.9,29.66,SW,225,8.0,11.0,95,0.14,,BKN060,0.49,0.00,VWS V14.01,2013-09-22 08:16:00,
2013-09-22 04:21:00,73.4,71.9,29.66,SW,219,5.0,9.0,95,0.10,,BKN060,0.49,0.00,VWS V14.01,2013-09-22 08:21:00,
2013-09-22 04:26:00,73.4,71.9,29.66,West,269,3.0,10.0,95,0.07,,BKN060,0.49,0.00,VWS V14.01,2013-09-22 08:26:00,
2013-09-22 04:31:00,73.4,71.9,29.66,SSW,211,7.0,8.0,95,0.02,,BKN060,0.49,0.00,VWS V14.01,2013-09-22 08:31:00,
2013-09-22 04:36:00,73.4,71.9,29.65,SW,236,7.0,12.0,95,0.01,,BKN060,0.49,0.00,VWS V14.01,2013-09-22 08:36:00,
2013-09-22 04:41:00,73.4,71.9,29.65,SW,220,8.0,9.0,95,0.00,,SCT030,0.49,0.00,VWS V14.01,2013-09-22 08:41:00,
2013-09-22 04:46:00,73.4,71.9,29.66,SW,219,7.0,8.0,95,0.00,,SCT030,0.49,0.00,VWS V14.01,2013-09-22 08:46:00,
2013-09-22 04:51:00,73.3,71.8,29.65,WSW,240,5.0,10.0,95,0.00,,SCT030,0.49,0.00,VWS V14.01,2013-09-22 08:51:00,
2013-09-22 04:56:00,73.3,71.8,29.65,SW,225,6.0,9.0,95,0.00,,SCT030,0.49,0.00,VWS V14.01,2013-09-22 08:56:00,
2013-09-22 05:01:00,73.3,71.8,29.66,WSW,246,6.0,11.0,95,0.00,,SCT023,0.49,0.00,VWS V14.01,2013-09-22 09:01:00,
2013-09-22 05:06:00,73.2,71.7,29.66,West,277,6.0,16.0,95,0.00,,SCT023,0.49,0.00,VWS V14.01,2013-09-22 09:06:00,
2013-09-22 05:11:00,73.2,71.7,29.66,SW,223,4.0,12.0,95,0.00,,SCT023,0.49,0.00,VWS V14.01,2013-09-22 09:11:00,
2013-09-22 05:16:00,73.2,71.7,29.66,West,265,7.0,15.0,95,0.00,,SCT023,0.49,0.00,VWS V14.01,2013-09-22 09:16:00,
2013-09-22 05:21:00,73.2,71.7,29.66,SW,217,3.0,10.0,95,0.00,,SCT021,0.49,0.00,VWS V14.01,2013-09-22 09:21:00,
2013-09-22 05:26:00,73.2,71.7,29.66,SW,228,7.0,13.0,95,0.00,,SCT021,0.49,0.00,VWS V14.01,2013-09-22 09:26:00,
2013-09-22 05:31:00,73.2,71.7,29.66,SW,230,4.0,11.0,95,0.00,,SCT021,0.49,0.00,VWS V14.01,2013-09-22 09:31:00,
2013-09-22 05:36:00,73.1,71.6,29.66,SW,233,4.0,11.0,95,0.00,,SCT021,0.49,0.00,VWS V14.01,2013-09-22 09:36:00,
2013-09-22 05:41:00,73.1,71.6,29.67,SW,226,3.0,13.0,95,0.00,,BKN017,0.49,0.00,VWS V14.01,2013-09-22 09:41:00,
2013-09-22 05:46:00,73.1,71.6,29.67,SW,227,9.0,10.0,95,0.00,,BKN017,0.49,0.00,VWS V14.01,2013-09-22 09:46:00,
2013-09-22 05:51:00,73.0,71.5,29.67,SSW,200,7.0,9.0,95,0.00,,BKN017,0.49,0.00,VWS V14.01,2013-09-22 09:51:00,
2013-09-22 05:56:00,73.0,71.5,29.67,SW,217,4.0,9.0,95,0.00,,BKN017,0.49,0.00,VWS V14.01,2013-09-22 09:56:00,
2013-09-22 06:01:00,73.0,71.5,29.67,SW,232,6.0,9.0,95,0.00,,BKN010,0.49,0.00,VWS V14.01,2013-09-22 10:01:00,
2013-09-22 06:06:00,72.9,71.4,29.67,SW,225,4.0,9.0,95,0.00,,BKN010,0.49,0.00,VWS V14.01,2013-09-22 10:06:00,
2013-09-22 06:11:00,72.9,71.4,29.67,West,259,6.0,10.0,95,0.00,,BKN010,0.49,0.00,VWS V14.01,2013-09-22 10:11:00,
2013-09-22 06:16:00,72.9,71.4,29.67,West,261,8.0,11.0,95,0.00,,BKN010,0.49,0.00,VWS V14.01,2013-09-22 10:16:00,
2013-09-22 06:21:00,72.8,71.3,29.67,WSW,249,6.0,11.0,95,0.00,,BKN010,0.49,0.00,VWS V14.01,2013-09-22 10:21:00,
2013-09-22 06:26:00,72.7,71.2,29.67,South,190,3.0,10.0,95,0.00,,BKN010,0.49,0.00,VWS V14.01,2013-09-22 10:26:00,
2013-09-22 06:31:00,72.7,71.2,29.67,SW,217,5.0,10.0,95,0.00,,BKN010,0.49,0.00,VWS V14.01,2013-09-22 10:31:00,
2013-09-22 06:36:00,72.6,70.8,29.67,West,270,9.0,11.0,94,0.00,,BKN010,0.49,0.00,VWS V14.01,2013-09-22 10:36:00,
2013-09-22 06:41:00,72.5,71.0,29.67,WSW,250,8.0,9.0,95,0.00,,BKN010,0.49,0.00,VWS V14.01,2013-09-22 10:41:00,
2013-09-22 06:46:00,72.5,71.0,29.67,WSW,252,4.0,8.0,95,0.00,,BKN010,0.49,0.00,VWS V14.01,2013-09-22 10:46:00,
2013-09-22 06:51:00,72.5,71.0,29.67,SSW,205,5.0,10.0,95,0.00,,BKN010,0.49,0.00,VWS V14.01,2013-09-22 10:51:00,
2013-09-22 06:56:00,72.4,70.9,29.67,WSW,254,5.0,8.0,95,0.00,,BKN010,0.49,0.00,VWS V14.01,2013-09-22 10:56:00,
2013-09-22 07:01:00,72.3,70.8,29.67,WSW,240,3.0,8.0,95,0.00,,BKN010,0.49,0.00,VWS V14.01,2013-09-22 11:01:00,
2013-09-22 07:06:00,72.3,70.8,29.67,SSW,208,5.0,6.0,95,0.00,,BKN010,0.49,0.00,VWS V14.01,2013-09-22 11:06:00,
2013-09-22 07:11:00,72.3,70.8,29.68,WNW,292,7.0,10.0,95,0.00,,BKN010,0.49,5.00,VWS V14.01,2013-09-22 11:11:00,
2013-09-22 07:16:00,72.2,70.7,29.67,SW,232,5.0,9.0,95,0.00,,BKN010,0.49,9.00,VWS V14.01,2013-09-22 11:16:00,
2013-09-22 07:21:00,72.2,70.7,29.67,SW,221,4.0,8.0,95,0.00,,BKN010,0.49,12.00,VWS V14.01,2013-09-22 11:21:00,
2013-09-22 07:26:00,72.2,70.7,29.68,West,280,2.0,7.0,95,0.00,,BKN010,0.49,12.00,VWS V14.01,2013-09-22 11:26:00,
2013-09-22 07:31:00,72.2,70.7,29.68,WSW,258,3.0,8.0,95,0.00,,BKN010,0.49,7.00,VWS V14.01,2013-09-22 11:31:00,
2013-09-22 07:36:00,72.2,70.4,29.68,WSW,246,4.0,11.0,94,0.00,,BKN010,0.49,18.00,VWS V14.01,2013-09-22 11:36:00,
2013-09-22 07:41:00,72.0,70.2,29.68,WNW,291,4.0,6.0,94,0.00,,BKN010,0.49,21.00,VWS V14.01,2013-09-22 11:41:00,
2013-09-22 07:46:00,71.8,69.7,29.69,WSW,250,7.0,10.0,93,0.00,,BKN010,0.49,21.00,VWS V14.01,2013-09-22 11:46:00,
2013-09-22 07:51:00,71.3,68.5,29.69,WNW,292,6.0,12.0,91,0.00,,BKN010,0.49,33.00,VWS V14.01,2013-09-22 11:51:00,
2013-09-22 07:56:00,70.9,67.8,29.69,WNW,296,4.0,10.0,90,0.00,,BKN010,0.49,49.00,VWS V14.01,2013-09-22 11:56:00,
2013-09-22 08:01:00,70.3,67.6,29.69,WSW,245,6.0,11.0,91,0.00,,BKN010,0.49,46.00,VWS V14.01,2013-09-22 12:01:00,
2013-09-22 08:06:00,70.1,67.4,29.69,WNW,286,4.0,11.0,91,0.00,,BKN010,0.49,28.00,VWS V14.01,2013-09-22 12:06:00,
2013-09-22 08:11:00,69.8,67.1,29.69,NW,323,3.0,9.0,91,0.00,,BKN010,0.49,30.00,VWS V14.01,2013-09-22 12:11:00,
2013-09-22 08:16:00,69.6,66.9,29.69,WNW,298,7.0,15.0,91,0.00,,BKN010,0.49,42.00,VWS V14.01,2013-09-22 12:16:00,
2013-09-22 08:21:00,69.3,66.2,29.70,WNW,286,2.0,9.0,90,0.00,,BKN010,0.49,42.00,VWS V14.01,2013-09-22 12:21:00,
2013-09-22 08:26:00,69.1,66.1,29.70,North,355,8.0,14.0,90,0.00,,BKN010,0.49,84.00,VWS V14.01,2013-09-22 12:26:00,
2013-09-22 08:31:00,68.8,65.8,29.70,WSW,248,4.0,12.0,90,0.00,,BKN010,0.49,100.00,VWS V14.01,2013-09-22 12:31:00,
2013-09-22 08:36:00,68.8,65.4,29.70,NNW,332,3.0,11.0,89,0.00,,BKN010,0.49,104.00,VWS V14.01,2013-09-22 12:36:00,
2013-09-22 08:41:00,68.7,65.3,29.70,NNW,333,4.0,9.0,89,0.00,,BKN010,0.49,72.00,VWS V14.01,2013-09-22 12:41:00,
2013-09-22 08:46:00,68.7,65.7,29.70,NW,317,7.0,11.0,90,0.00,,BKN010,0.49,63.00,VWS V14.01,2013-09-22 12:46:00,
2013-09-22 08:51:00,68.7,65.7,29.70,WNW,303,6.0,9.0,90,0.00,,BKN010,0.49,67.00,VWS V14.01,2013-09-22 12:51:00,
2013-09-22 08:56:00,68.7,65.7,29.71,NW,322,4.0,7.0,90,0.00,,BKN010,0.49,67.00,VWS V14.01,2013-09-22 12:56:00,
2013-09-22 09:01:00,68.7,65.7,29.71,North,360,3.0,12.0,90,0.00,,BKN008,0.49,81.00,VWS V14.01,2013-09-22 13:01:00,
2013-09-22 09:06:00,68.5,65.5,29.71,North,355,9.0,14.0,90,0.00,,BKN008,0.49,88.00,VWS V14.01,2013-09-22 13:06:00,
2013-09-22 09:11:00,68.4,65.7,29.71,NW,325,6.0,9.0,91,0.00,,BKN008,0.49,70.00,VWS V14.01,2013-09-22 13:11:00,
2013-09-22 09:16:00,68.4,65.7,29.71,North,11,3.0,7.0,91,0.00,,BKN008,0.49,90.00,VWS V14.01,2013-09-22 13:16:00,
2013-09-22 09:21:00,68.2,65.2,29.72,WNW,290,3.0,9.0,90,0.00,,BKN008,0.49,176.00,VWS V14.01,2013-09-22 13:21:00,
2013-09-22 09:26:00,68.2,65.2,29.72,NW,312,3.0,9.0,90,0.00,,BKN008,0.49,153.00,VWS V14.01,2013-09-22 13:26:00,
2013-09-22 09:31:00,68.2,64.8,29.72,West,269,8.0,11.0,89,0.00,,BKN008,0.49,135.00,VWS V14.01,2013-09-22 13:31:00,
2013-09-22 09:36:00,68.1,65.1,29.72,SSW,194,2.0,8.0,90,0.00,,BKN008,0.49,213.00,VWS V14.01,2013-09-22 13:36:00,
2013-09-22 09:41:00,68.3,65.3,29.72,West,269,6.0,9.0,90,0.00,,BKN008,0.49,204.00,VWS V14.01,2013-09-22 13:41:00,
2013-09-22 09:46:00,68.5,65.1,29.72,NNE,18,3.0,8.0,89,0.00,,BKN008,0.49,174.00,VWS V14.01,2013-09-22 13:46:00,
2013-09-22 09:51:00,68.5,64.8,29.72,WNW,284,7.0,11.0,88,0.00,,BKN008,0.49,123.00,VWS V14.01,2013-09-22 13:51:00,
2013-09-22 09:56:00,68.4,65.0,29.72,North,350,0.0,9.0,89,0.00,,BKN008,0.49,97.00,VWS V14.01,2013-09-22 13:56:00,
2013-09-22 10:01:00,68.3,64.9,29.73,NW,316,2.0,8.0,89,0.00,,BKN008,0.49,128.00,VWS V14.01,2013-09-22 14:01:00,
2013-09-22 10:06:00,68.3,64.9,29.73,West,279,1.0,9.0,89,0.00,,BKN008,0.49,141.00,VWS V14.01,2013-09-22 14:06:00,
2013-09-22 10:11:00,68.3,65.3,29.73,North,355,5.0,7.0,90,0.00,,BKN008,0.49,144.00,VWS V14.01,2013-09-22 14:11:00,
2013-09-22 10:16:00,68.4,65.4,29.72,North,355,3.0,7.0,90,0.00,,BKN008,0.49,169.00,VWS V14.01,2013-09-22 14:16:00,
2013-09-22 10:21:00,68.6,65.6,29.72,WSW,239,3.0,7.0,90,0.00,,BKN008,0.49,123.00,VWS V14.01,2013-09-22 14:21:00,
2013-09-22 10:26:00,68.7,65.3,29.72,NE,51,1.0,8.0,89,0.00,,BKN008,0.49,153.00,VWS V14.01,2013-09-22 14:26:00,
2013-09-22 10:31:00,68.8,65.4,29.72,NW,311,3.0,6.0,89,0.00,,BKN008,0.49,237.00,VWS V14.01,2013-09-22 14:31:00,
2013-09-22 10:36:00,69.2,65.8,29.72,North,11,1.0,8.0,89,0.00,,BKN008,0.49,253.00,VWS V14.01,2013-09-22 14:36:00,
2013-09-22 10:41:00,69.5,66.1,29.72,NW,304,3.0,7.0,89,0.00,,BKN008,0.49,214.00,VWS V14.01,2013-09-22 14:41:00,
2013-09-22 10:46:00,69.8,66.1,29.73,North,355,1.0,8.0,88,0.00,,BKN008,0.49,220.00,VWS V14.01,2013-09-22 14:46:00,
2013-09-22 10:51:00,69.8,66.1,29.72,NW,313,3.0,6.0,88,0.00,,BKN008,0.49,186.00,VWS V14.01,2013-09-22 14:51:00,
2013-09-22 10:56:00,69.8,66.1,29.73,NNW,332,6.0,9.0,88,0.00,,BKN008,0.49,202.00,VWS V14.01,2013-09-22 14:56:00,
2013-09-22 11:01:00,70.0,66.0,29.73,ENE,57,2.0,9.0,87,0.00,,OVC008,0.49,181.00,VWS V14.01,2013-09-22 15:01:00,
2013-09-22 11:06:00,70.0,66.0,29.73,WNW,287,1.0,9.0,87,0.00,,OVC008,0.49,200.00,VWS V14.01,2013-09-22 15:06:00,
2013-09-22 11:11:00,70.2,66.2,29.73,West,268,5.0,7.0,87,0.00,,OVC008,0.49,160.00,VWS V14.01,2013-09-22 15:11:00,
2013-09-22 11:16:00,70.3,66.2,29.73,NNW,342,6.0,11.0,87,0.00,,OVC008,0.49,178.00,VWS V14.01,2013-09-22 15:16:00,
2013-09-22 11:21:00,70.3,66.2,29.73,West,268,4.0,9.0,87,0.00,,OVC008,0.49,214.00,VWS V14.01,2013-09-22 15:21:00,
2013-09-22 11:26:00,70.7,66.7,29.73,NW,326,3.0,6.0,87,0.00,,OVC008,0.49,327.00,VWS V14.01,2013-09-22 15:26:00,
2013-09-22 11:31:00,71.2,66.8,29.73,East,84,2.0,8.0,86,0.00,,OVC008,0.49,230.00,VWS V14.01,2013-09-22 15:31:00,
2013-09-22 11:36:00,71.7,66.6,29.72,NE,35,3.0,6.0,84,0.00,,OVC008,0.49,160.00,VWS V14.01,2013-09-22 15:36:00,
2013-09-22 11:41:00,71.8,67.1,29.73,NNW,328,5.0,9.0,85,0.00,,OVC008,0.49,186.00,VWS V14.01,2013-09-22 15:41:00,
2013-09-22 11:46:00,71.8,66.7,29.73,NE,39,5.0,8.0,84,0.00,,OVC008,0.49,207.00,VWS V14.01,2013-09-22 15:46:00,
2013-09-22 11:51:00,71.7,66.9,29.73,North,350,2.0,8.0,85,0.00,,OVC008,0.49,216.00,VWS V14.01,2013-09-22 15:51:00,
2013-09-22 11:56:00,71.8,67.1,29.73,NNE,22,5.0,7.0,85,0.00,,OVC008,0.49,144.00,VWS V14.01,2013-09-22 15:56:00,
2013-09-22 12:01:00,71.7,66.9,29.73,North,355,3.0,5.0,85,0.00,,OVC012,0.49,135.00,VWS V14.01,2013-09-22 16:01:00,
2013-09-22 12:06:00,71.7,66.9,29.73,NNW,331,1.0,8.0,85,0.00,,OVC012,0.49,172.00,VWS V14.01,2013-09-22 16:06:00,
2013-09-22 12:11:00,71.6,66.9,29.73,SW,227,1.0,7.0,85,0.00,,OVC012,0.49,169.00,VWS V14.01,2013-09-22 16:11:00,
2013-09-22 12:16:00,71.6,66.9,29.73,NW,319,2.0,6.0,85,0.00,,OVC012,0.49,221.00,VWS V14.01,2013-09-22 16:16:00,
2013-09-22 12:21:00,71.9,66.8,29.73,NNW,327,6.0,9.0,84,0.00,,OVC012,0.49,127.00,VWS V14.01,2013-09-22 16:21:00,
2013-09-22 12:26:00,71.9,66.8,29.74,North,5,8.0,11.0,84,0.00,,OVC012,0.49,294.00,VWS V14.01,2013-09-22 16:26:00,
2013-09-22 12:31:00,72.2,67.1,29.73,North,355,3.0,9.0,84,0.00,,OVC012,0.49,283.00,VWS V14.01,2013-09-22 16:31:00,
2013-09-22 12:36:00,72.6,67.2,29.74,NW,324,2.0,8.0,83,0.00,,OVC012,0.49,237.00,VWS V14.01,2013-09-22 16:36:00,
2013-09-22 12:41:00,72.7,67.2,29.74,East,79,5.0,8.0,83,0.00,,OVC012,0.49,121.00,VWS V14.01,2013-09-22 16:41:00,
2013-09-22 12:46:00,72.5,67.1,29.74,NW,313,7.0,9.0,83,0.00,,OVC012,0.49,239.00,VWS V14.01,2013-09-22 16:46:00,
2013-09-22 12:51:00,72.6,67.2,29.74,North,5,5.0,7.0,83,0.00,,OVC012,0.49,220.00,VWS V14.01,2013-09-22 16:51:00,
2013-09-22 12:56:00,72.8,67.3,29.74,SSE,167,7.0,7.0,83,0.00,,OVC012,0.49,218.00,VWS V14.01,2013-09-22 16:56:00,
2013-09-22 13:01:00,72.8,67.0,29.74,NE,42,4.0,11.0,82,0.00,,OVC012,0.49,195.00,VWS V14.01,2013-09-22 17:01:00,
2013-09-22 13:06:00,72.8,67.0,29.74,NW,313,4.0,9.0,82,0.00,,OVC012,0.49,178.00,VWS V14.01,2013-09-22 17:06:00,
2013-09-22 13:11:00,72.9,67.1,29.74,North,355,3.0,6.0,82,0.00,,OVC012,0.49,158.00,VWS V14.01,2013-09-22 17:11:00,
2013-09-22 13:16:00,72.9,67.1,29.74,South,183,2.0,9.0,82,0.00,,OVC012,0.49,269.00,VWS V14.01,2013-09-22 17:16:00,
2013-09-22 13:21:00,73.1,67.3,29.74,ENE,65,8.0,10.0,82,0.00,,OVC012,0.49,244.00,VWS V14.01,2013-09-22 17:21:00,
2013-09-22 13:26:00,73.0,67.2,29.74,NNE,32,3.0,10.0,82,0.00,,OVC012,0.49,207.00,VWS V14.01,2013-09-22 17:26:00,
2013-09-22 13:31:00,72.9,67.1,29.74,East,88,2.0,8.0,82,0.00,,OVC012,0.49,250.00,VWS V14.01,2013-09-22 17:31:00,
2013-09-22 13:36:00,73.0,67.2,29.74,NNW,336,5.0,8.0,82,0.00,,OVC012,0.49,241.00,VWS V14.01,2013-09-22 17:36:00,
2013-09-22 13:41:00,73.2,67.4,29.74,NNE,17,3.0,8.0,82,0.00,,OVC012,0.49,185.00,VWS V14.01,2013-09-22 17:41:00,
2013-09-22 13:46:00,73.2,67.4,29.74,NE,49,1.0,9.0,82,0.00,,OVC012,0.49,216.00,VWS V14.01,2013-09-22 17:46:00,
2013-09-22 13:51:00,73.1,67.3,29.74,North,9,4.0,10.0,82,0.00,,OVC012,0.49,125.00,VWS V14.01,2013-09-22 17:51:00,
2013-09-22 13:56:00,73.2,67.4,29.74,NE,48,5.0,6.0,82,0.00,,OVC012,0.49,120.00,VWS V14.01,2013-09-22 17:56:00,
2013-09-22 14:01:00,73.1,67.3,29.73,North,9,3.0,6.0,82,0.00,,OVC012,0.49,155.00,VWS V14.01,2013-09-22 18:01:00,
2013-09-22 14:06:00,73.0,67.2,29.73,NE,50,4.0,9.0,82,0.00,,OVC012,0.49,174.00,VWS V14.01,2013-09-22 18:06:00,
2013-09-22 14:11:00,72.9,67.1,29.73,NE,45,2.0,11.0,82,0.00,,OVC016,0.49,151.00,VWS V14.01,2013-09-22 18:11:00,
2013-09-22 14:16:00,73.0,67.2,29.73,North,5,1.0,4.0,82,0.00,,OVC016,0.49,127.00,VWS V14.01,2013-09-22 18:16:00,
2013-09-22 14:21:00,73.1,67.3,29.73,North,360,1.0,11.0,82,0.00,,OVC016,0.49,132.00,VWS V14.01,2013-09-22 18:21:00,
2013-09-22 14:26:00,73.1,67.3,29.73,NNW,331,6.0,6.0,82,0.00,,OVC016,0.49,118.00,VWS V14.01,2013-09-22 18:26:00,
2013-09-22 14:31:00,72.9,67.1,29.72,NNE,17,6.0,10.0,82,0.00,,OVC016,0.49,100.00,VWS V14.01,2013-09-22 18:31:00,
2013-09-22 14:36:00,72.8,67.0,29.73,NE,37,2.0,12.0,82,0.00,,OVC016,0.49,113.00,VWS V14.01,2013-09-22 18:36:00,
2013-09-22 14:41:00,72.8,67.0,29.72,NNW,342,3.0,8.0,82,0.00,,OVC016,0.49,207.00,VWS V14.01,2013-09-22 18:41:00,
2013-09-22 14:46:00,72.9,67.1,29.73,North,351,1.0,8.0,82,0.00,,OVC016,0.49,146.00,VWS V14.01,2013-09-22 18:46:00,
2013-09-22 14:51:00,73.1,67.3,29.73,NNW,348,4.0,9.0,82,0.00,,OVC016,0.49,91.00,VWS V14.01,2013-09-22 18:51:00,
2013-09-22 14:56:00,72.9,67.1,29.73,NNW,344,4.0,10.0,82,0.00,,OVC016,0.49,105.00,VWS V14.01,2013-09-22 18:56:00,
2013-09-22 15:01:00,72.8,67.0,29.73,North,355,3.0,9.0,82,0.00,,OVC016,0.49,142.00,VWS V14.01,2013-09-22 19:01:00,
2013-09-22 15:06:00,73.0,67.5,29.73,NNE,12,2.0,5.0,83,0.00,,OVC016,0.49,287.00,VWS V14.01,2013-09-22 19:06:00,
2013-09-22 15:11:00,73.5,67.3,29.72,NNE,32,1.0,5.0,81,0.00,,OVC016,0.49,169.00,VWS V14.01,2013-09-22 19:11:00,
2013-09-22 15:16:00,73.7,67.5,29.73,NNW,336,9.0,9.0,81,0.00,,OVC016,0.49,165.00,VWS V14.01,2013-09-22 19:16:00,
2013-09-22 15:21:00,73.8,67.2,29.73,NE,47,1.0,9.0,80,0.00,,OVC016,0.49,171.00,VWS V14.01,2013-09-22 19:21:00,
2013-09-22 15:26:00,74.1,67.2,29.73,NE,44,3.0,8.0,79,0.00,,OVC016,0.49,295.00,VWS V14.01,2013-09-22 19:26:00,
2013-09-22 15:31:00,74.3,67.4,29.73,NE,53,5.0,7.0,79,0.00,,OVC016,0.49,118.00,VWS V14.01,2013-09-22 19:31:00,
2013-09-22 15:36:00,74.3,67.4,29.73,West,267,4.0,7.0,79,0.00,,OVC016,0.49,69.00,VWS V14.01,2013-09-22 19:36:00,
2013-09-22 15:41:00,74.0,67.4,29.73,ENE,69,3.0,7.0,80,0.00,,OVC016,0.49,185.00,VWS V14.01,2013-09-22 19:41:00,
2013-09-22 15:46:00,74.0,67.4,29.73,NNE,26,4.0,11.0,80,0.00,,OVC016,0.49,339.00,VWS V14.01,2013-09-22 19:46:00,
2013-09-22 15:51:00,74.5,67.2,29.73,ENE,65,2.0,7.0,78,0.00,,OVC016,0.49,362.00,VWS V14.01,2013-09-22 19:51:00,
2013-09-22 15:56:00,75.2,67.5,29.73,NNE,32,5.0,8.0,77,0.00,,OVC016,0.49,209.00,VWS V14.01,2013-09-22 19:56:00,
2013-09-22 16:01:00,75.2,67.5,29.74,SSW,211,4.0,7.0,77,0.00,,OVC016,0.49,281.00,VWS V14.01,2013-09-22 20:01:00,
2013-09-22 16:06:00,75.2,67.5,29.74,ENE,70,1.0,10.0,77,0.00,,OVC016,0.49,292.00,VWS V14.01,2013-09-22 20:06:00,
2013-09-22 16:11:00,75.5,67.4,29.74,NNE,17,5.0,8.0,76,0.00,,OVC016,0.49,258.00,VWS V14.01,2013-09-22 20:11:00,
2013-09-22 16:16:00,75.6,67.1,29.73,North,9,2.0,7.0,75,0.00,,OVC016,0.49,297.00,VWS V14.01,2013-09-22 20:16:00,
2013-09-22 16:21:00,76.0,67.5,29.74,North,5,1.0,7.0,75,0.00,,OVC016,0.49,352.00,VWS V14.01,2013-09-22 20:21:00,
2013-09-22 16:26:00,76.2,67.3,29.74,NNW,327,3.0,7.0,74,0.00,,OVC016,0.49,237.00,VWS V14.01,2013-09-22 20:26:00,
2013-09-22 16:31:00,76.2,67.3,29.73,North,355,1.0,4.0,74,0.00,,OVC016,0.49,264.00,VWS V14.01,2013-09-22 20:31:00,
2013-09-22 16:36:00,76.0,67.5,29.73,NNE,17,2.0,9.0,75,0.00,,OVC016,0.49,200.00,VWS V14.01,2013-09-22 20:36:00,
2013-09-22 16:41:00,75.8,67.3,29.74,NNE,12,3.0,9.0,75,0.00,,OVC016,0.49,255.00,VWS V14.01,2013-09-22 20:41:00,
2013-09-22 16:46:00,75.6,67.1,29.74,NE,40,1.0,8.0,75,0.00,,OVC016,0.49,211.00,VWS V14.01,2013-09-22 20:46:00,
2013-09-22 16:51:00,75.8,67.7,29.74,ENE,74,2.0,8.0,76,0.00,,OVC016,0.49,132.00,VWS V14.01,2013-09-22 20:51:00,
2013-09-22 16:56:00,75.8,67.7,29.74,East,83,1.0,8.0,76,0.00,,OVC016,0.49,142.00,VWS V14.01,2013-09-22 20:56:00,
2013-09-22 17:01:00,75.6,67.5,29.75,NE,39,2.0,7.0,76,0.00,,OVC027,0.49,151.00,VWS V14.01,2013-09-22 21:01:00,
2013-09-22 17:06:00,75.7,67.6,29.75,North,360,3.0,11.0,76,0.00,,OVC027,0.49,185.00,VWS V14.01,2013-09-22 21:06:00,
2013-09-22 17:11:00,75.9,67.4,29.75,NNW,337,0.0,6.0,75,0.00,,OVC027,0.49,176.00,VWS V14.01,2013-09-22 21:11:00,
2013-09-22 17:16:00,75.7,67.2,29.74,NE,52,3.0,7.0,75,0.00,,OVC027,0.49,204.00,VWS V14.01,2013-09-22 21:16:00,
2013-09-22 17:21:00,75.6,67.1,29.74,NNW,344,4.0,7.0,75,0.00,,OVC027,0.49,179.00,VWS V14.01,2013-09-22 21:21:00,
2013-09-22 17:26:00,75.9,67.0,29.75,NNE,26,1.0,8.0,74,0.00,,OVC027,0.49,178.00,VWS V14.01,2013-09-22 21:26:00,
2013-09-22 17:31:00,76.0,66.7,29.75,NE,49,2.0,7.0,73,0.00,,OVC027,0.49,176.00,VWS V14.01,2013-09-22 21:31:00,
2013-09-22 17:36:00,76.1,66.8,29.75,North,9,2.0,6.0,73,0.00,,OVC027,0.49,165.00,VWS V14.01,2013-09-22 21:36:00,
2013-09-22 17:41:00,76.2,66.9,29.75,North,355,1.0,9.0,73,0.00,,OVC027,0.49,156.00,VWS V14.01,2013-09-22 21:41:00,
2013-09-22 17:46:00,76.3,67.0,29.75,NNE,28,4.0,7.0,73,0.00,,OVC027,0.49,169.00,VWS V14.01,2013-09-22 21:46:00,
2013-09-22 17:51:00,76.2,66.9,29.75,NNW,338,2.0,4.0,73,0.00,,OVC027,0.49,174.00,VWS V14.01,2013-09-22 21:51:00,
2013-09-22 17:56:00,76.3,67.0,29.75,NW,309,6.0,7.0,73,0.00,,OVC027,0.49,148.00,VWS V14.01,2013-09-22 21:56:00,
2013-09-22 18:01:00,76.2,66.9,29.75,North,5,0.0,7.0,73,0.00,,BKN046,0.49,120.00,VWS V14.01,2013-09-22 22:01:00,
2013-09-22 18:06:00,76.1,66.8,29.75,NE,55,2.0,6.0,73,0.00,,BKN046,0.49,104.00,VWS V14.01,2013-09-22 22:06:00,
2013-09-22 18:11:00,76.0,66.7,29.76,North,351,3.0,8.0,73,0.00,,BKN046,0.49,84.00,VWS V14.01,2013-09-22 22:11:00,
2013-09-22 18:16:00,75.8,66.5,29.76,ENE,70,2.0,6.0,73,0.00,,BKN046,0.49,74.00,VWS V14.01,2013-09-22 22:16:00,
2013-09-22 18:21:00,75.6,66.7,29.76,NNE,13,2.0,5.0,74,0.00,,BKN046,0.49,63.00,VWS V14.01,2013-09-22 22:21:00,
2013-09-22 18:26:00,75.5,67.0,29.76,NE,35,0.0,3.0,75,0.00,,BKN046,0.49,53.00,VWS V14.01,2013-09-22 22:26:00,
2013-09-22 18:31:00,75.3,67.2,29.76,East,96,0.0,4.0,76,0.00,,BKN046,0.49,46.00,VWS V14.01,2013-09-22 22:31:00,
2013-09-22 18:36:00,75.2,67.1,29.76,NE,49,1.0,4.0,76,0.00,,BKN046,0.49,37.00,VWS V14.01,2013-09-22 22:36:00,
2013-09-22 18:41:00,74.9,66.8,29.76,NNE,12,0.0,3.0,76,0.00,,BKN046,0.49,23.00,VWS V14.01,2013-09-22 22:41:00,
2013-09-22 18:46:00,74.8,66.7,29.77,ENE,74,2.0,5.0,76,0.00,,BKN046,0.49,18.00,VWS V14.01,2013-09-22 22:46:00,
2013-09-22 18:51:00,74.7,67.0,29.77,East,98,0.0,4.0,77,0.00,,BKN046,0.49,12.00,VWS V14.01,2013-09-22 22:51:00,
2013-09-22 18:56:00,74.4,66.7,29.76,North,360,3.0,8.0,77,0.00,,BKN046,0.49,9.00,VWS V14.01,2013-09-22 22:56:00,
2013-09-22 19:01:00,74.3,66.6,29.77,NNW,338,4.0,6.0,77,0.00,,BKN046,0.49,5.00,VWS V14.01,2013-09-22 23:01:00,
2013-09-22 19:06:00,74.2,66.9,29.77,North,355,1.0,6.0,78,0.00,,BKN046,0.49,0.00,VWS V14.01,2013-09-22 23:06:00,
2013-09-22 19:11:00,74.1,66.8,29.77,NNW,331,2.0,4.0,78,0.00,,BKN046,0.49,0.00,VWS V14.01,2013-09-22 23:11:00,
2013-09-22 19:16:00,74.1,66.8,29.77,North,351,1.0,4.0,78,0.00,,BKN046,0.49,0.00,VWS V14.01,2013-09-22 23:16:00,
2013-09-22 19:21:00,74.0,66.7,29.77,NNE,30,2.0,3.0,78,0.00,,BKN046,0.49,0.00,VWS V14.01,2013-09-22 23:21:00,
2013-09-22 19:26:00,74.0,66.7,29.77,NNE,19,0.0,3.0,78,0.00,,BKN046,0.49,0.00,VWS V14.01,2013-09-22 23:26:00,
2013-09-22 19:31:00,73.9,67.0,29.78,NNE,13,0.0,4.0,79,0.00,,BKN046,0.49,0.00,VWS V14.01,2013-09-22 23:31:00,
2013-09-22 19:36:00,73.8,66.9,29.78,NNE,17,3.0,3.0,79,0.00,,BKN046,0.49,0.00,VWS V14.01,2013-09-22 23:36:00,
2013-09-22 19:41:00,73.8,66.9,29.78,North,5,3.0,4.0,79,0.00,,BKN046,0.49,0.00,VWS V14.01,2013-09-22 23:41:00,
2013-09-22 19:46:00,73.8,66.9,29.78,North,355,0.0,3.0,79,0.00,,BKN046,0.49,0.00,VWS V14.01,2013-09-22 23:46:00,
2013-09-22 19:51:00,73.7,66.8,29.78,ENE,57,0.0,4.0,79,0.00,,BKN046,0.49,0.00,VWS V14.01,2013-09-22 23:51:00,
2013-09-22 19:56:00,73.6,66.7,29.79,NNE,28,1.0,3.0,79,0.00,,BKN046,0.49,0.00,VWS V14.01,2013-09-22 23:56:00,
2013-09-22 20:01:00,73.5,67.0,29.79,NE,40,2.0,3.0,80,0.00,,OVC028,0.49,0.00,VWS V14.01,2013-09-23 00:01:00,
2013-09-22 20:06:00,73.4,66.9,29.79,NE,41,0.0,3.0,80,0.00,,OVC028,0.49,0.00,VWS V14.01,2013-09-23 00:06:00,
2013-09-22 20:11:00,73.3,66.8,29.79,NE,41,2.0,2.0,80,0.00,,OVC028,0.49,0.00,VWS V14.01,2013-09-23 00:11:00,
2013-09-22 20:16:00,73.3,66.8,29.79,ENE,71,0.0,2.0,80,0.00,,OVC028,0.49,0.00,VWS V14.01,2013-09-23 00:16:00,
2013-09-22 20:21:00,73.2,67.0,29.79,ENE,71,0.0,2.0,81,0.00,,OVC028,0.49,0.00,VWS V14.01,2013-09-23 00:21:00,
2013-09-22 20:26:00,73.1,66.9,29.80,ENE,71,2.0,2.0,81,0.00,,OVC028,0.49,0.00,VWS V14.01,2013-09-23 00:26:00,
2013-09-22 20:31:00,73.0,67.2,29.80,ENE,71,0.0,2.0,82,0.00,,OVC028,0.49,0.00,VWS V14.01,2013-09-23 00:31:00,
2013-09-22 20:36:00,72.9,66.7,29.80,NNW,344,1.0,4.0,81,0.00,,OVC028,0.49,0.00,VWS V14.01,2013-09-23 00:36:00,
2013-09-22 20:41:00,72.9,66.7,29.81,NNE,21,4.0,4.0,81,0.00,,OVC028,0.49,0.00,VWS V14.01,2013-09-23 00:41:00,
2013-09-22 20:46:00,72.9,66.0,29.81,NE,53,1.0,5.0,79,0.00,,OVC028,0.49,0.00,VWS V14.01,2013-09-23 00:46:00,
2013-09-22 20:51:00,73.0,66.1,29.81,NE,40,1.0,4.0,79,0.00,,OVC028,0.49,0.00,VWS V14.01,2013-09-23 00:51:00,
2013-09-22 20:56:00,73.0,66.1,29.82,NNE,16,0.0,4.0,79,0.00,,OVC028,0.49,0.00,VWS V14.01,2013-09-23 00:56:00,
2013-09-22 21:01:00,73.0,65.7,29.82,North,360,2.0,5.0,78,0.00,,OVC040,0.49,0.00,VWS V14.01,2013-09-23 01:01:00,
2013-09-22 21:06:00,73.0,66.1,29.82,North,360,0.0,2.0,79,0.00,,OVC040,0.49,0.00,VWS V14.01,2013-09-23 01:06:00,
2013-09-22 21:11:00,72.9,65.7,29.82,North,5,2.0,3.0,78,0.00,,OVC040,0.49,0.00,VWS V14.01,2013-09-23 01:11:00,
2013-09-22 21:16:00,72.9,66.0,29.82,NE,37,2.0,3.0,79,0.00,,OVC040,0.49,0.00,VWS V14.01,2013-09-23 01:16:00,
2013-09-22 21:21:00,72.9,65.7,29.82,NE,46,0.0,3.0,78,0.00,,OVC040,0.49,0.00,VWS V14.01,2013-09-23 01:21:00,
2013-09-22 21:26:00,72.8,65.6,29.83,NNE,28,0.0,2.0,78,0.00,,OVC040,0.49,0.00,VWS V14.01,2013-09-23 01:26:00,
2013-09-22 21:31:00,72.8,65.6,29.82,NE,36,0.0,3.0,78,0.00,,OVC040,0.49,0.00,VWS V14.01,2013-09-23 01:31:00,
2013-09-22 21:36:00,72.8,65.6,29.83,NE,49,1.0,3.0,78,0.00,,OVC040,0.49,0.00,VWS V14.01,2013-09-23 01:36:00,
2013-09-22 21:41:00,72.7,65.1,29.82,NE,34,2.0,5.0,77,0.00,,OVC040,0.49,0.00,VWS V14.01,2013-09-23 01:41:00,
2013-09-22 21:46:00,72.7,65.4,29.83,NE,56,1.0,4.0,78,0.00,,OVC040,0.49,0.00,VWS V14.01,2013-09-23 01:46:00,
2013-09-22 21:51:00,72.7,65.4,29.83,NNW,342,3.0,4.0,78,0.00,,OVC040,0.49,0.00,VWS V14.01,2013-09-23 01:51:00,
2013-09-22 21:56:00,72.7,65.4,29.83,NNE,26,1.0,3.0,78,0.00,,OVC040,0.49,0.00,VWS V14.01,2013-09-23 01:56:00,
2013-09-22 22:01:00,72.7,65.4,29.84,NNE,30,2.0,3.0,78,0.00,,OVC041,0.49,0.00,VWS V14.01,2013-09-23 02:01:00,
2013-09-22 22:06:00,72.6,65.3,29.83,NE,45,2.0,4.0,78,0.00,,OVC041,0.49,0.00,VWS V14.01,2013-09-23 02:06:00,
2013-09-22 22:11:00,72.6,65.3,29.84,ENE,65,0.0,2.0,78,0.00,,OVC041,0.49,0.00,VWS V14.01,2013-09-23 02:11:00,
2013-09-22 22:16:00,72.5,65.3,29.83,NE,53,1.0,2.0,78,0.00,,OVC041,0.49,0.00,VWS V14.01,2013-09-23 02:16:00,
2013-09-22 22:21:00,72.4,65.2,29.83,NE,49,1.0,3.0,78,0.00,,OVC041,0.49,0.00,VWS V14.01,2013-09-23 02:21:00,
2013-09-22 22:26:00,72.3,64.7,29.84,NE,47,0.0,3.0,77,0.00,,OVC041,0.49,0.00,VWS V14.01,2013-09-23 02:26:00,
2013-09-22 22:31:00,72.2,65.0,29.84,NE,42,1.0,2.0,78,0.00,,OVC041,0.49,0.00,VWS V14.01,2013-09-23 02:31:00,
2013-09-22 22:36:00,72.1,64.9,29.84,NE,42,0.0,2.0,78,0.00,,OVC041,0.49,0.00,VWS V14.01,2013-09-23 02:36:00,
2013-09-22 22:41:00,72.0,65.1,29.84,NE,42,0.0,2.0,79,0.00,,OVC041,0.49,0.00,VWS V14.01,2013-09-23 02:41:00,
2013-09-22 22:46:00,71.9,65.0,29.84,NE,42,0.0,0.0,79,0.00,,OVC041,0.49,0.00,VWS V14.01,2013-09-23 02:46:00,
2013-09-22 22:51:00,71.7,64.8,29.84,NE,42,0.0,1.0,79,0.00,,OVC041,0.49,0.00,VWS V14.01,2013-09-23 02:51:00,
2013-09-22 22:56:00,71.5,64.7,29.84,NE,42,0.0,1.0,79,0.00,,OVC041,0.49,0.00,VWS V14.01,2013-09-23 02:56:00,
2013-09-22 23:01:00,71.2,64.7,29.85,NNE,16,0.0,3.0,80,0.00,,OVC041,0.49,0.00,VWS V14.01,2013-09-23 03:01:00,
2013-09-22 23:06:00,70.9,64.4,29.85,NNE,16,0.0,0.0,80,0.00,,OVC041,0.49,0.00,VWS V14.01,2013-09-23 03:06:00,
2013-09-22 23:11:00,70.7,64.6,29.84,NNE,16,0.0,0.0,81,0.00,,OVC041,0.49,0.00,VWS V14.01,2013-09-23 03:11:00,
2013-09-22 23:16:00,70.4,64.7,29.84,NNE,16,0.0,0.0,82,0.00,,OVC041,0.49,0.00,VWS V14.01,2013-09-23 03:16:00,
2013-09-22 23:21:00,70.3,64.6,29.85,NNE,16,0.0,0.0,82,0.00,,SCT047,0.49,0.00,VWS V14.01,2013-09-23 03:21:00,
2013-09-22 23:26:00,70.0,64.3,29.85,NNE,16,1.0,1.0,82,0.00,,SCT047,0.49,0.00,VWS V14.01,2013-09-23 03:26:00,
2013-09-22 23:31:00,69.7,64.3,29.85,North,9,0.0,2.0,83,0.00,,SCT047,0.49,0.00,VWS V14.01,2013-09-23 03:31:00,
2013-09-22 23:36:00,69.4,64.0,29.85,North,9,0.0,0.0,83,0.00,,SCT047,0.49,0.00,VWS V14.01,2013-09-23 03:36:00,
2013-09-22 23:41:00,69.1,64.1,29.84,North,9,0.0,2.0,84,0.00,,BKN047,0.49,0.00,VWS V14.01,2013-09-23 03:41:00,
2013-09-22 23:46:00,68.9,64.2,29.85,North,9,0.0,2.0,85,0.00,,BKN047,0.49,0.00,VWS V14.01,2013-09-23 03:46:00,
2013-09-22 23:51:00,68.8,64.1,29.85,North,9,0.0,0.0,85,0.00,,BKN047,0.49,0.00,VWS V14.01,2013-09-23 03:51:00,
2013-09-22 23:56:00,68.6,63.9,29.85,North,9,0.0,0.0,85,0.00,,BKN047,0.49,0.00,VWS V14.01,2013-09-23 03:56:00,